Time;durP1;ratioP1;P1;durP2;ratioP2;P2;SDS_P1;SDS_P2;PMS_P1;PMS_P2;Temp;Humidity;BMP_temperature;BMP_pressure;BME280_temperature;BME280_humidity;BME280_pressure;Samples;Min_cycle;Max_cycle;Signal;HPM_P1;HPM_P2
2022/12/07 00:01:42;;;;;;;2.70;1.80;;;;;;;9.89;100.00;-12971.88;5073050;28;20647;-65
2022/12/07 00:04:11;;;;;;;2.10;1.30;;;;;;;10.18;100.00;-12976.41;5072394;28;20212;-66
2022/12/07 00:06:40;;;;;;;1.57;1.47;;;;;;;10.16;100.00;-12976.00;5072664;28;20196;-66
2022/12/07 00:09:10;;;;;;;1.53;1.43;;;;;;;10.23;100.00;-11704.56;5072634;28;20184;-65
2022/12/07 00:11:37;;;;;;;1.87;1.73;;;;;;;10.27;100.00;-12023.41;5072313;28;20192;-64
2022/12/07 00:14:08;;;;;;;3.03;1.40;;;;;;;10.09;100.00;-12020.81;5072288;28;20188;-66
2022/12/07 00:16:35;;;;;;;1.83;1.73;;;;;;;10.17;100.00;-12340.09;5072490;28;20184;-66
2022/12/07 00:19:03;;;;;;;1.50;1.40;;;;;;;9.99;100.00;-12655.41;5072484;28;20192;-66
2022/12/07 00:21:33;;;;;;;1.87;1.77;;;;;;;10.01;100.00;-13291.66;5071865;28;20192;-65
2022/12/07 00:24:00;;;;;;;2.37;1.60;;;;;;;9.88;100.00;-13607.47;5072064;28;20209;-65
2022/12/07 00:26:29;;;;;;;1.93;1.70;;;;;;;9.98;100.00;-13291.16;5072290;28;20646;-65
2022/12/07 00:28:57;;;;;;;1.77;1.67;;;;;;;9.96;100.00;-13290.84;5072392;28;20207;-66
2022/12/07 00:31:27;;;;;;;3.47;1.43;;;;;;;9.92;100.00;-13290.25;5071004;28;20188;-65
2022/12/07 00:33:54;;;;;;;1.90;1.80;;;;;;;9.89;100.00;-12971.78;5072128;28;20572;-65
2022/12/07 00:36:23;;;;;;;1.97;1.87;;;;;;;10.10;100.00;-12020.97;5072491;28;20577;-65
2022/12/07 00:38:50;;;;;;;5.73;1.60;;;;;;;10.07;100.00;-11384.28;5072091;28;20185;-65
2022/12/07 00:41:19;;;;;;;2.00;1.90;;;;;;;10.08;100.00;-11702.56;5071867;28;20191;-65
2022/12/07 00:43:49;;;;;;;2.50;1.83;;;;;;;10.16;100.00;-11385.41;5071692;28;20208;-66
2022/12/07 00:46:17;;;;;;;5.23;1.77;;;;;;;10.19;100.00;-11385.81;5072149;28;20220;-66
2022/12/07 00:48:45;;;;;;;2.20;1.60;;;;;;;10.26;100.00;-11068.50;5071816;28;20191;-65
2022/12/07 00:51:13;;;;;;;5.20;1.90;;;;;;;10.12;100.00;-10430.22;5071764;28;20195;-66
2022/12/07 00:53:41;;;;;;;1.60;1.50;;;;;;;10.05;100.00;-10747.72;5072077;28;20185;-65
2022/12/07 00:56:09;;;;;;;1.93;1.83;;;;;;;10.19;100.00;-10431.09;5072003;28;20285;-65
2022/12/07 00:58:36;;;;;;;2.43;1.73;;;;;;;10.13;100.00;-10430.34;5072000;28;20200;-65
2022/12/07 01:01:04;;;;;;;1.67;1.40;;;;;;;10.10;100.00;-11066.50;5071754;28;20220;-65
2022/12/07 01:03:31;;;;;;;5.40;2.00;;;;;;;10.09;100.00;-10429.97;5071450;28;20254;-65
2022/12/07 01:05:59;;;;;;;3.43;2.20;;;;;;;10.23;100.00;-10749.81;5070678;28;20196;-65
2022/12/07 01:08:27;;;;;;;1.70;1.60;;;;;;;10.14;100.00;-10430.50;5071675;28;20287;-66
2022/12/07 01:11:00;;;;;;;2.60;2.33;;;;;;;10.02;100.00;-11701.72;5071953;28;20559;-65
2022/12/07 01:13:28;;;;;;;2.40;2.30;;;;;;;10.09;100.00;-13610.94;5071558;28;20241;-65
2022/12/07 01:15:58;;;;;;;3.03;2.73;;;;;;;10.02;100.00;-13927.63;5071535;28;20184;-66
2022/12/07 01:18:24;;;;;;;3.00;2.40;;;;;;;10.05;100.00;-13292.31;5071614;28;20188;-65
2022/12/07 01:21:00;;;;;;;2.73;2.33;;;;;;;10.09;100.00;-12338.91;5071399;28;20181;-64
2022/12/07 01:23:27;;;;;;;4.37;2.73;;;;;;;10.12;100.00;-12021.19;5071616;28;20184;-66
2022/12/07 01:25:58;;;;;;;2.83;2.47;;;;;;;10.06;100.00;-12020.38;5071640;28;20628;-66
2022/12/07 01:28:25;;;;;;;2.73;2.53;;;;;;;10.02;100.00;-12019.81;5072164;28;20585;-65
2022/12/07 01:30:59;;;;;;;4.93;3.20;;;;;;;9.94;100.00;-12972.59;5071625;28;20184;-66
2022/12/07 01:33:29;;;;;;;3.27;2.97;;;;;;;10.02;100.00;-13291.81;5071376;28;20199;-66
2022/12/07 01:35:55;;;;;;;3.13;2.93;;;;;;;10.04;100.00;-12974.19;5071322;28;20192;-66
2022/12/07 01:38:24;;;;;;;2.83;2.63;;;;;;;10.02;100.00;-12973.94;5071565;28;20189;-65
2022/12/07 01:40:55;;;;;;;3.13;2.93;;;;;;;10.10;100.00;-13293.13;5071663;28;20193;-65
2022/12/07 01:43:24;;;;;;;3.40;3.10;;;;;;;10.07;100.00;-12656.66;5071728;28;20197;-66
2022/12/07 01:45:51;;;;;;;3.10;2.90;;;;;;;10.09;100.00;-12338.91;5071076;28;20205;-65
2022/12/07 01:48:23;;;;;;;3.23;3.07;;;;;;;10.19;100.00;-12340.41;5071271;28;20196;-65
2022/12/07 01:50:54;;;;;;;2.90;2.80;;;;;;;10.28;100.00;-11705.25;5071423;28;20236;-64
2022/12/07 01:53:22;;;;;;;3.37;3.07;;;;;;;10.28;100.00;-11068.75;5071321;28;20189;-66
2022/12/07 01:55:54;;;;;;;3.30;3.10;;;;;;;10.42;100.00;-10433.75;5072735;28;20551;-65
2022/12/07 01:58:22;;;;;;;3.53;3.13;;;;;;;10.41;100.00;-9159.75;5072531;28;20199;-65
2022/12/07 02:00:49;;;;;;;3.57;3.27;;;;;;;10.48;100.00;-8523.22;5071821;28;20557;-66
2022/12/07 02:03:22;;;;;;;3.13;2.97;;;;;;;10.46;100.00;-8204.38;5071599;28;20199;-65
2022/12/07 02:05:50;;;;;;;3.57;3.30;;;;;;;10.44;100.00;-7248.13;5071202;28;20205;-65
2022/12/07 02:08:18;;;;;;;3.07;2.97;;;;;;;10.45;100.00;-7248.19;5070960;28;20195;-65
2022/12/07 02:10:48;;;;;;;3.50;3.30;;;;;;;10.49;100.00;-6610.81;5071252;28;20322;-66
2022/12/07 02:13:20;;;;;;;6.17;3.70;;;;;;;10.52;100.00;-6610.97;5070894;28;20180;-66
2022/12/07 02:16:10;;;;;;;3.40;3.20;;;;;;;10.46;100.00;-5654.06;5070972;28;20185;-65
2022/12/07 02:18:49;;;;;;;7.47;3.10;;;;;;;10.53;100.00;-4378.28;5074392;28;20247;-65
2022/12/07 02:21:25;;;;;;;3.50;3.30;;;;;;;10.51;100.00;-4059.19;5074822;28;20192;-65
2022/12/07 02:24:15;;;;;;;4.00;3.70;;;;;;;10.53;100.00;-3101.75;5074786;28;20543;-65
2022/12/07 02:27:20;;;;;;;3.83;3.37;;;;;;;10.48;100.00;-3101.75;5074391;28;20189;-65
2022/12/07 02:29:52;;;;;;;4.00;3.67;;;;;;;10.41;100.00;-2144.22;5074301;28;20250;-65
2022/12/07 02:32:25;;;;;;;4.00;3.67;;;;;;;10.40;100.00;-1505.72;5074432;28;20192;-65
2022/12/07 02:34:57;;;;;;;3.93;3.63;;;;;;;10.39;100.00;-2463.44;5074195;28;20185;-64
2022/12/07 02:37:35;;;;;;;3.77;3.57;;;;;;;10.17;100.00;-3739.75;5074133;28;20219;-66
2022/12/07 02:40:10;;;;;;;3.67;3.37;;;;;;;10.22;100.00;-4696.59;5074392;28;20521;-65
2022/12/07 02:42:43;;;;;;;4.00;3.80;;;;;;;10.18;100.00;-5015.31;5074243;28;20191;-65
2022/12/07 02:45:16;;;;;;;3.90;3.63;;;;;;;10.16;100.00;-4696.44;5074172;28;20217;-66
2022/12/07 02:47:46;;;;;;;3.93;3.73;;;;;;;10.09;100.00;-5015.06;5074306;28;20189;-66
2022/12/07 02:50:13;;;;;;;6.70;3.57;;;;;;;10.06;100.00;-5014.97;5074304;28;20229;-66
2022/12/07 02:52:40;;;;;;;4.07;3.87;;;;;;;10.03;100.00;-4696.13;5074002;28;20211;-65
2022/12/07 02:55:09;;;;;;;3.93;3.63;;;;;;;9.90;100.00;-4695.81;5074215;28;20181;-65
2022/12/07 02:57:49;;;;;;;3.70;3.50;;;;;;;9.93;100.00;-5014.63;5074025;28;20180;-65
2022/12/07 03:00:20;;;;;;;4.53;4.23;;;;;;;9.92;100.00;-6289.09;5073840;28;20187;-65
2022/12/07 03:02:54;;;;;;;4.73;4.33;;;;;;;9.96;100.00;-6607.91;5073777;28;20195;-65
2022/12/07 03:05:32;;;;;;;4.77;4.23;;;;;;;10.07;100.00;-6608.53;5073873;28;20281;-65
2022/12/07 03:08:06;;;;;;;10.00;4.53;;;;;;;10.10;100.00;-4696.31;5073672;28;20201;-65
2022/12/07 03:10:41;;;;;;;4.57;4.30;;;;;;;10.17;100.00;-3420.78;5073860;28;20196;-65
2022/12/07 03:13:13;;;;;;;4.60;4.33;;;;;;;10.22;100.00;-2463.66;5074170;28;20196;-66
2022/12/07 03:15:48;;;;;;;6.60;5.03;;;;;;;10.10;100.00;-1506.53;5073855;28;20191;-66
2022/12/07 03:18:19;;;;;;;6.13;5.60;;;;;;;10.15;100.00;-1187.22;5073366;28;20180;-67
2022/12/07 03:20:49;;;;;;;6.77;5.60;;;;;;;10.30;100.00;-1506.00;5073448;28;20177;-66
2022/12/07 03:23:18;;;;;;;5.80;5.30;;;;;;;10.16;100.00;-2144.63;5073681;28;20281;-66
2022/12/07 03:25:50;;;;;;;5.97;5.43;;;;;;;10.27;100.00;-2782.69;5073156;28;20215;-65
2022/12/07 03:28:21;;;;;;;6.10;5.60;;;;;;;10.34;100.00;-2463.50;5072630;28;20246;-65
2022/12/07 03:30:57;;;;;;;5.90;5.60;;;;;;;10.27;100.00;-2463.59;5073399;28;20197;-65
2022/12/07 03:33:28;;;;;;;5.23;4.83;;;;;;;10.23;100.00;-2782.72;5073169;28;20187;-65
2022/12/07 03:36:05;;;;;;;5.33;4.93;;;;;;;10.34;100.00;-2782.66;5073111;28;20177;-64
2022/12/07 03:38:37;;;;;;;5.70;5.13;;;;;;;10.39;100.00;-2782.63;5072967;28;20184;-65
2022/12/07 03:41:09;;;;;;;5.30;5.10;;;;;;;10.37;100.00;-2144.28;5073191;28;20188;-66
2022/12/07 03:43:37;;;;;;;5.67;5.30;;;;;;;10.38;100.00;-2144.25;5072925;28;20189;-66
2022/12/07 03:46:18;;;;;;;5.00;4.70;;;;;;;10.41;100.00;-2144.22;5073083;28;20578;-66
2022/12/07 03:48:55;;;;;;;5.23;4.90;;;;;;;10.40;100.00;-1824.97;5073010;28;20189;-65
2022/12/07 03:51:29;;;;;;;5.70;5.40;;;;;;;10.41;100.00;-1505.69;5072730;28;20189;-65
2022/12/07 03:54:03;;;;;;;6.87;6.27;;;;;;;10.41;100.00;-1186.38;5072943;28;20181;-65
2022/12/07 03:56:31;;;;;;;7.87;6.10;;;;;;;10.35;100.00;-547.91;5072683;28;20370;-66
2022/12/07 03:58:58;;;;;;;6.40;6.10;;;;;;;10.32;100.00;-548.06;5072864;28;20544;-65
2022/12/07 04:01:26;;;;;;;6.57;5.90;;;;;;;10.25;100.00;-867.63;5072693;28;20192;-65
2022/12/07 04:03:53;;;;;;;6.13;5.80;;;;;;;10.17;100.00;-1825.50;5072750;28;20197;-65
2022/12/07 04:06:20;;;;;;;6.63;6.03;;;;;;;10.17;100.00;-1825.50;5072426;28;20200;-66
2022/12/07 04:08:47;;;;;;;6.50;6.10;;;;;;;10.05;100.00;-2463.84;5072647;28;20563;-66
2022/12/07 04:11:14;;;;;;;6.53;6.17;;;;;;;10.12;100.00;-2782.81;5072386;28;20184;-65
2022/12/07 04:16:26;;;;;;;6.67;6.27;;;;;;;10.01;100.00;-1187.69;5072852;28;20180;-65
2022/12/07 04:18:53;;;;;;;8.40;5.63;;;;;;;9.99;100.00;-1506.84;5072670;28;20189;-65
2022/12/07 04:21:20;;;;;;;5.83;5.53;;;;;;;9.97;100.00;-2782.91;5072519;28;20185;-65
2022/12/07 04:23:47;;;;;;;11.93;7.00;;;;;;;9.73;100.00;-2783.06;5072762;28;20207;-64
2022/12/07 04:26:14;;;;;;;5.83;5.53;;;;;;;9.74;100.00;-3420.63;5072689;28;20205;-65
2022/12/07 04:28:40;;;;;;;7.10;6.60;;;;;;;9.64;100.00;-4057.94;5073059;28;20199;-66
2022/12/07 04:31:07;;;;;;;5.83;5.53;;;;;;;9.56;100.00;-5650.47;5072469;28;20192;-65
2022/12/07 04:33:37;;;;;;;7.10;6.60;;;;;;;9.61;100.00;-7879.25;5072407;28;20628;-65
2022/12/07 04:36:05;;;;;;;7.43;6.97;;;;;;;9.39;100.00;-6923.00;5072457;28;20202;-66
2022/12/07 04:38:31;;;;;;;7.70;7.20;;;;;;;9.47;100.00;-7878.16;5072204;28;20563;-65
2022/12/07 04:40:58;;;;;;;8.23;7.40;;;;;;;9.30;100.00;-8513.00;5072275;28;20192;-65
2022/12/07 04:43:25;;;;;;;7.40;6.83;;;;;;;9.25;100.00;-9148.53;5072169;28;20188;-66
2022/12/07 04:45:52;;;;;;;8.57;7.83;;;;;;;9.35;100.00;-8513.47;5072203;28;20281;-65
2022/12/07 04:48:19;;;;;;;9.57;8.63;;;;;;;9.54;100.00;-8833.28;5072179;28;20193;-65
2022/12/07 04:50:49;;;;;;;9.33;8.33;;;;;;;9.63;100.00;-9152.22;5071815;28;20228;-65
2022/12/07 04:53:16;;;;;;;7.40;6.90;;;;;;;9.69;100.00;-8834.63;5072240;28;20257;-65
2022/12/07 04:55:43;;;;;;;12.60;8.83;;;;;;;9.55;100.00;-5650.44;5072253;28;20185;-64
2022/12/07 04:58:10;;;;;;;10.47;9.83;;;;;;;9.49;100.00;-5331.78;5071984;28;20181;-67
2022/12/07 05:00:36;;;;;;;10.80;9.87;;;;;;;9.53;100.00;-4694.91;5071832;28;20184;-65
2022/12/07 05:03:03;;;;;;;10.67;9.77;;;;;;;9.43;100.00;-4057.63;5071906;28;20191;-65
2022/12/07 05:05:30;;;;;;;8.27;7.87;;;;;;;9.34;100.00;-5649.56;5071793;28;20255;-65
2022/12/07 05:07:59;;;;;;;11.40;10.30;;;;;;;9.23;100.00;-8194.38;5071146;28;20644;-65
2022/12/07 05:10:25;;;;;;;11.00;9.90;;;;;;;9.31;100.00;-8831.16;5072314;28;20220;-65
2022/12/07 05:12:52;;;;;;;10.60;9.63;;;;;;;9.26;100.00;-8512.69;5072190;28;20655;-65
2022/12/07 05:15:19;;;;;;;12.90;11.67;;;;;;;9.31;100.00;-9467.13;5071792;28;20187;-64
2022/12/07 05:17:46;;;;;;;13.70;12.30;;;;;;;9.10;100.00;-9782.78;5072080;28;20677;-65
2022/12/07 05:20:13;;;;;;;15.90;11.93;;;;;;;9.33;100.00;-8513.31;5072127;28;20578;-65
2022/12/07 05:22:40;;;;;;;18.27;12.57;;;;;;;9.14;100.00;-5967.00;5071970;28;20185;-66
2022/12/07 05:25:09;;;;;;;15.97;12.37;;;;;;;9.12;100.00;-4057.19;5071824;28;20216;-65
2022/12/07 05:27:36;;;;;;;18.30;13.23;;;;;;;8.82;100.00;-3420.25;5071657;28;20211;-66
2022/12/07 05:30:03;;;;;;;13.03;11.83;;;;;;;8.90;100.00;-5011.53;5071996;28;20563;-66
2022/12/07 05:32:30;;;;;;;20.60;13.37;;;;;;;8.79;100.00;-5011.19;5071892;28;20185;-66
2022/12/07 05:34:57;;;;;;;21.53;14.03;;;;;;;8.69;100.00;-5328.97;5071659;28;20185;-65
2022/12/07 05:37:24;;;;;;;17.73;12.70;;;;;;;8.79;100.00;-4693.06;5071470;28;20207;-65
2022/12/07 05:39:51;;;;;;;20.93;13.30;;;;;;;8.84;100.00;-4375.00;5071388;28;20185;-65
2022/12/07 05:42:18;;;;;;;30.10;14.30;;;;;;;8.80;100.00;-3101.94;5071779;28;20551;-66
2022/12/07 05:44:47;;;;;;;25.17;14.27;;;;;;;8.73;100.00;-2147.00;5071764;28;20351;-65
2022/12/07 05:47:15;;;;;;;20.63;14.60;;;;;;;8.74;100.00;-5647.16;5071753;28;20209;-66
2022/12/07 05:49:42;;;;;;;17.97;14.33;;;;;;;8.75;100.00;-7236.97;5071433;28;20232;-66
2022/12/07 05:52:09;;;;;;;21.63;14.63;;;;;;;8.67;100.00;-9143.00;5074000;28;20189;-66
2022/12/07 05:54:36;;;;;;;19.63;14.67;;;;;;;8.76;100.00;-10731.94;5075286;28;20188;-65
2022/12/07 05:57:03;;;;;;;12.37;11.43;;;;;;;8.91;100.00;-11686.47;5075502;28;20188;-66
2022/12/07 05:59:30;;;;;;;16.07;13.10;;;;;;;8.81;100.00;-11050.06;5075540;28;20216;-66
2022/12/07 06:01:58;;;;;;;16.30;14.43;;;;;;;8.89;100.00;-9780.53;5075277;28;20189;-66
2022/12/07 06:04:26;;;;;;;25.43;15.70;;;;;;;9.07;100.00;-8193.09;5075181;28;20177;-65
2022/12/07 06:06:54;;;;;;;26.53;16.13;;;;;;;9.12;100.00;-5966.94;5075294;28;20208;-65
2022/12/07 06:09:22;;;;;;;23.70;16.57;;;;;;;9.22;100.00;-6603.81;5075316;28;20189;-64
2022/12/07 06:14:35;;;;;;;17.07;14.47;;;;;;;9.47;100.00;-6286.88;5075292;28;20578;-65
2022/12/07 06:17:02;;;;;;;22.03;13.47;;;;;;;9.73;100.00;-5969.69;5076057;28;20177;-60
2022/12/07 06:19:29;;;;;;;18.60;15.63;;;;;;;10.09;100.00;-4696.28;5076299;28;20267;-64
2022/12/07 06:21:57;;;;;;;17.80;16.03;;;;;;;10.18;100.00;3284.78;5074866;28;20187;-66
2022/12/07 06:24:24;;;;;;;27.67;14.93;;;;;;;10.25;100.00;9685.19;5074799;28;20185;-65
2022/12/07 06:26:51;;;;;;;16.53;13.43;;;;;;;10.07;100.00;7120.94;5075502;28;20208;-66
2022/12/07 06:29:19;;;;;;;21.23;15.50;;;;;;;10.21;100.00;6803.19;5076830;28;20523;-64
2022/12/07 06:31:47;;;;;;;18.93;15.80;;;;;;;10.42;100.00;8727.84;5077035;28;20189;-66
2022/12/07 06:34:16;;;;;;;36.60;16.57;;;;;;;10.62;100.00;13861.81;5076098;28;20226;-65
2022/12/07 06:36:43;;;;;;;24.23;14.17;;;;;;;10.79;100.00;18363.34;5075140;28;20192;-65
2022/12/07 06:39:11;;;;;;;20.97;12.63;;;;;;;10.84;100.00;19329.56;5075926;28;20276;-65
2022/12/07 06:41:39;;;;;;;12.87;11.53;;;;;;;11.21;100.00;26751.28;5076638;28;20550;-66
2022/12/07 06:44:06;;;;;;;11.57;10.77;;;;;;;11.42;100.00;35158.41;5076142;28;20189;-66
2022/12/07 06:46:35;;;;;;;16.80;11.90;;;;;;;11.64;100.00;45863.91;5075033;28;20204;-66
2022/12/07 06:49:03;;;;;;;11.60;10.43;;;;;;;12.07;100.00;63480.44;5076142;28;20632;-65
2022/12/07 06:51:30;;;;;;;9.87;8.80;;;;;;;12.43;100.00;78577.38;5076330;28;20185;-62
2022/12/07 06:53:59;;;;;;;42.93;13.83;;;;;;;13.20;100.00;84926.53;5075039;28;20725;-64
2022/12/07 06:56:26;;;;;;;12.03;10.90;;;;;;;13.97;100.00;149550.25;5074903;28;20181;-63
2022/12/07 06:58:52;;;;;;;9.97;9.00;;;;;;;14.32;100.00;149637.72;5074276;28;20196;-63
2022/12/07 07:01:19;;;;;;;11.37;10.17;;;;;;;14.59;100.00;149705.00;5074151;28;20192;-63
2022/12/07 07:03:48;;;;;;;12.30;11.20;;;;;;;14.59;100.00;149705.00;5071835;28;20524;-63
2022/12/07 07:06:16;;;;;;;22.47;11.83;;;;;;;14.71;100.00;149735.44;5073674;28;20213;-67
2022/12/07 07:08:43;;;;;;;15.10;11.40;;;;;;;14.96;100.00;149797.56;5074230;28;20181;-66
2022/12/07 07:11:12;;;;;;;14.13;11.40;;;;;;;15.58;100.00;149953.63;5074278;28;20188;-67
2022/12/07 07:13:40;;;;;;;12.63;11.30;;;;;;;16.28;100.00;150130.09;5074264;28;20193;-67
2022/12/07 07:16:08;;;;;;;20.07;11.90;;;;;;;16.98;100.00;150304.09;5073869;28;20675;-65
2022/12/07 07:18:35;;;;;;;11.20;8.90;;;;;;;17.70;100.00;150485.84;5073721;28;20192;-66
2022/12/07 07:21:02;;;;;;;15.17;11.70;;;;;;;18.12;100.00;150591.41;5073814;28;20181;-66
2022/12/07 07:23:30;;;;;;;24.67;12.53;;;;;;;18.37;100.00;150654.97;5073972;28;20726;-66
2022/12/07 07:25:57;;;;;;;36.30;18.47;;;;;;;18.56;100.00;150703.31;5074063;28;20204;-68
2022/12/07 07:28:25;;;;;;;61.17;19.53;;;;;;;18.49;100.00;150685.50;5075952;28;20200;-66
2022/12/07 07:30:51;;;;;;;23.43;15.83;;;;;;;18.12;100.00;150591.41;5074089;28;20189;-68
2022/12/07 07:33:18;;;;;;;13.60;12.23;;;;;;;18.56;100.00;150703.31;5073683;28;20208;-65
2022/12/07 07:35:45;;;;;;;15.13;12.53;;;;;;;18.10;100.00;150586.28;5073570;28;20192;-68
2022/12/07 07:38:12;;;;;;;11.57;10.57;;;;;;;18.55;100.00;150700.75;5073983;28;20657;-66
2022/12/07 07:40:41;;;;;;;10.93;9.87;;;;;;;18.74;100.00;150747.84;5073157;28;20279;-68
2022/12/07 07:43:08;;;;;;;13.10;11.80;;;;;;;19.39;100.00;150911.94;5073256;28;20185;-67
2022/12/07 07:45:35;;;;;;;35.50;18.60;;;;;;;20.07;100.00;151082.59;5073684;28;20755;-68
2022/12/07 07:48:02;;;;;;;16.33;12.00;;;;;;;20.52;100.00;151197.22;5073640;28;20220;-68
2022/12/07 07:50:31;;;;;;;18.23;12.20;;;;;;;20.16;100.00;151105.47;5073848;28;20235;-69
2022/12/07 07:52:59;;;;;;;11.87;10.97;;;;;;;20.54;100.00;151199.78;5073133;28;20188;-67
2022/12/07 07:55:26;;;;;;;27.43;12.23;;;;;;;21.06;100.00;151332.22;5072961;28;20238;-68
2022/12/07 07:57:55;;;;;;;13.20;12.03;;;;;;;20.99;100.00;151314.41;5073573;28;20188;-67
2022/12/07 08:00:23;;;;;;;13.10;11.80;;;;;;;21.24;100.00;151376.88;5073549;28;20189;-68
2022/12/07 08:02:50;;;;;;;12.77;11.20;;;;;;;20.94;100.00;151302.94;5073177;28;20193;-66
2022/12/07 08:05:18;;;;;;;26.67;13.73;;;;;;;20.94;100.00;151301.66;5072450;28;20193;-68
2022/12/07 08:07:45;;;;;;;24.67;13.87;;;;;;;21.37;100.00;151410.00;5072527;28;20196;-67
2022/12/07 08:10:14;;;;;;;25.07;12.63;;;;;;;21.78;98.94;151513.22;5072587;28;20196;-67
2022/12/07 08:15:25;;;;;;;17.67;11.97;;;;;;;21.17;100.00;151359.06;5071717;28;20293;-66
2022/12/07 08:17:54;;;;;;;18.80;12.52;;;;;;;21.30;99.74;151393.41;5073253;28;20184;-66
2022/12/07 08:20:22;;;;;;;21.87;13.50;;;;;;;21.75;97.67;151506.88;5073800;28;20614;-67
2022/12/07 08:22:49;;;;;;;19.50;10.97;;;;;;;21.53;97.65;151450.78;5072584;28;20185;-66
2022/12/07 08:25:16;;;;;;;14.60;9.53;;;;;;;21.43;98.97;151426.56;5072876;28;20524;-66
2022/12/07 08:27:43;;;;;;;9.68;8.75;;;;;;;22.13;94.52;151601.25;5071375;28;20216;-67
2022/12/07 08:30:10;;;;;;;11.88;7.72;;;;;;;22.03;92.95;151577.00;5072036;28;20276;-66
2022/12/07 08:32:41;;;;;;;7.63;7.05;;;;;;;21.57;98.19;151459.69;5073637;28;20222;-67
2022/12/07 08:35:09;;;;;;;7.07;6.68;;;;;;;21.82;92.75;151524.72;5073750;28;20185;-68
2022/12/07 08:37:36;;;;;;;14.02;7.32;;;;;;;21.61;95.21;151469.88;5072920;28;20205;-68
2022/12/07 08:40:05;;;;;;;10.60;6.70;;;;;;;21.33;97.04;151399.81;5072601;28;20192;-68
2022/12/07 08:42:39;;;;;;;15.30;8.40;;;;;;;21.64;97.82;151477.56;5073108;28;20188;-68
2022/12/07 08:45:08;;;;;;;7.03;6.27;;;;;;;19.85;100.00;151026.56;5073245;28;20184;-67
2022/12/07 08:47:35;;;;;;;7.90;7.03;;;;;;;19.38;100.00;150909.44;5072908;28;20208;-67
2022/12/07 08:50:06;;;;;;;28.50;9.30;;;;;;;18.95;100.00;150800.00;5072530;28;20236;-67
2022/12/07 08:52:34;;;;;;;7.77;7.00;;;;;;;18.37;100.00;150654.97;5072611;28;20272;-66
2022/12/07 08:55:03;;;;;;;6.37;6.07;;;;;;;18.08;100.00;150581.19;5072044;28;20207;-66
2022/12/07 08:57:31;;;;;;;8.37;7.40;;;;;;;17.75;100.00;150499.84;5071875;28;20177;-67
2022/12/07 08:59:58;;;;;;;8.47;5.93;;;;;;;17.79;100.00;150510.00;5072984;28;20623;-65
2022/12/07 09:02:25;;;;;;;7.60;6.97;;;;;;;18.42;100.00;150667.66;5072041;28;20582;-66
2022/12/07 09:04:52;;;;;;;7.57;6.73;;;;;;;19.52;100.00;150945.06;5071974;28;20191;-67
2022/12/07 09:07:21;;;;;;;11.77;6.70;;;;;;;20.51;100.00;151193.38;5071937;28;20215;-67
2022/12/07 09:09:50;;;;;;;6.53;5.90;;;;;;;20.88;100.00;151287.63;5071782;28;20188;-67
2022/12/07 09:12:16;;;;;;;6.50;5.97;;;;;;;20.11;100.00;151092.78;5071524;28;20236;-68
2022/12/07 09:14:43;;;;;;;6.80;6.20;;;;;;;20.15;100.00;151102.94;5072071;28;20185;-67
2022/12/07 09:17:12;;;;;;;6.43;5.83;;;;;;;19.21;100.00;150866.16;5072185;28;20291;-67
2022/12/07 09:19:41;;;;;;;7.53;6.07;;;;;;;19.16;100.00;150853.44;5071821;28;20189;-67
2022/12/07 09:22:08;;;;;;;8.77;6.40;;;;;;;19.39;100.00;150911.94;5071682;28;20184;-67
2022/12/07 09:24:36;;;;;;;6.10;5.60;;;;;;;19.89;100.00;151038.03;5071955;28;20219;-65
2022/12/07 09:27:04;;;;;;;7.00;5.93;;;;;;;20.13;100.00;151096.56;5073892;28;20209;-67
2022/12/07 09:29:31;;;;;;;7.83;6.40;;;;;;;20.66;100.00;151231.63;5076533;28;20192;-66
2022/12/07 09:31:57;;;;;;;7.63;5.87;;;;;;;21.04;100.00;151327.16;5075769;28;20200;-68
2022/12/07 09:34:27;;;;;;;10.63;6.50;;;;;;;21.36;99.06;151408.72;5075940;28;20216;-67
2022/12/07 09:36:54;;;;;;;11.17;6.10;;;;;;;21.10;99.40;151342.41;5075089;28;20643;-67
2022/12/07 09:39:21;;;;;;;7.00;6.43;;;;;;;20.86;100.00;151281.28;5075416;28;20493;-68
2022/12/07 09:41:49;;;;;;;16.50;7.63;;;;;;;21.60;97.66;151467.38;5075238;28;20341;-66
2022/12/07 09:44:24;;;;;;;8.97;6.37;;;;;;;21.14;96.60;151352.66;5075717;28;20188;-68
2022/12/07 09:46:52;;;;;;;15.27;6.83;;;;;;;20.75;100.00;151253.28;5075739;28;20634;-67
2022/12/07 09:49:23;;;;;;;5.60;5.30;;;;;;;20.59;100.00;151213.75;5075787;28;20232;-69
2022/12/07 09:52:01;;;;;;;6.97;6.40;;;;;;;20.60;100.00;151215.03;5076220;28;20616;-68
2022/12/07 09:54:31;;;;;;;18.27;7.47;;;;;;;20.44;100.00;151176.84;5075862;28;20275;-67
2022/12/07 09:56:59;;;;;;;6.73;6.30;;;;;;;20.48;100.00;151185.75;5076021;28;20670;-67
2022/12/07 09:59:26;;;;;;;11.37;7.17;;;;;;;20.16;100.00;151105.47;5075197;28;20196;-67
2022/12/07 10:01:53;;;;;;;18.03;9.23;;;;;;;19.92;100.00;151044.38;5074988;28;20192;-68
2022/12/07 10:04:22;;;;;;;18.00;7.70;;;;;;;19.38;100.00;150909.44;5075116;28;20185;-67
2022/12/07 10:06:50;;;;;;;7.57;6.70;;;;;;;19.60;100.00;150965.44;5074863;28;20640;-66
2022/12/07 10:09:19;;;;;;;7.63;6.93;;;;;;;19.73;100.00;150997.25;5074306;28;20212;-68
2022/12/07 10:12:08;;;;;;;6.60;6.30;;;;;;;20.56;100.00;151204.84;5075577;28;20185;-66
2022/12/07 10:14:37;;;;;;;12.65;7.68;;;;;;;21.09;100.00;151339.84;5075349;28;20180;-67
2022/12/07 10:17:30;;;;;;;8.15;7.65;;;;;;;21.36;100.00;151408.72;5075595;28;20189;-68
2022/12/07 10:20:15;;;;;;;12.57;7.32;;;;;;;21.48;99.71;151438.03;5075234;28;20196;-69
2022/12/07 10:22:55;;;;;;;14.30;8.43;;;;;;;22.74;93.22;151755.63;5075562;28;20586;-67
2022/12/07 10:25:24;;;;;;;22.08;10.90;;;;;;;22.25;94.37;151631.84;5075294;28;20191;-67
2022/12/07 10:28:01;;;;;;;16.90;8.55;;;;;;;22.47;91.78;151686.69;5074408;28;20255;-67
2022/12/07 10:30:28;;;;;;;7.18;6.78;;;;;;;22.93;87.15;151802.78;5074447;28;20191;-67
2022/12/07 10:32:55;;;;;;;7.60;7.07;;;;;;;22.61;90.27;151723.69;5074921;28;20216;-67
2022/12/07 10:35:25;;;;;;;9.80;6.50;;;;;;;22.53;89.25;151703.25;5074760;28;20219;-64
2022/12/07 10:37:54;;;;;;;7.32;6.72;;;;;;;21.24;96.04;151376.88;5074526;28;20191;-65
2022/12/07 10:40:31;;;;;;;6.57;6.20;;;;;;;20.51;100.00;151194.66;5074677;28;20276;-66
2022/12/07 10:43:07;;;;;;;6.73;6.13;;;;;;;19.32;100.00;150894.13;5074782;28;20667;-66
2022/12/07 10:45:36;;;;;;;7.03;6.53;;;;;;;18.71;100.00;150740.22;5074734;28;20228;-67
2022/12/07 10:48:12;;;;;;;6.83;6.50;;;;;;;18.02;100.00;150565.97;5074900;28;20209;-66
2022/12/07 10:51:04;;;;;;;7.03;6.37;;;;;;;17.91;100.00;150538.00;5074237;28;20702;-64
2022/12/07 10:53:49;;;;;;;11.17;6.93;;;;;;;17.77;100.00;150504.97;5071043;28;20201;-66
2022/12/07 10:56:40;;;;;;;11.73;7.23;;;;;;;17.79;100.00;150508.72;5073890;28;20189;-66
2022/12/07 10:59:25;;;;;;;14.07;7.70;;;;;;;17.44;100.00;150421.00;5071468;28;20197;-66
2022/12/07 11:02:00;;;;;;;8.30;7.53;;;;;;;17.06;100.00;150325.69;5073581;28;20199;-65
2022/12/07 11:04:36;;;;;;;7.50;6.80;;;;;;;16.93;100.00;150292.66;5073980;28;20263;-66
2022/12/07 11:07:12;;;;;;;9.33;8.43;;;;;;;16.78;100.00;150254.56;5073464;28;20212;-66
2022/12/07 11:10:03;;;;;;;15.63;9.17;;;;;;;16.83;100.00;150268.56;5073997;28;20185;-65
2022/12/07 11:12:45;;;;;;;10.53;8.37;;;;;;;16.77;100.00;150253.31;5073484;28;20197;-64
2022/12/07 11:15:21;;;;;;;12.47;8.57;;;;;;;16.63;100.00;150217.78;5073947;28;20607;-65
2022/12/07 11:17:57;;;;;;;10.13;7.83;;;;;;;16.66;100.00;150225.38;5073783;28;20181;-63
2022/12/07 11:20:44;;;;;;;11.10;8.47;;;;;;;16.52;100.00;150189.75;5073291;28;20188;-63
2022/12/07 11:23:30;;;;;;;7.90;7.50;;;;;;;16.53;100.00;150192.31;5073346;28;20196;-62
2022/12/07 11:26:07;;;;;;;8.30;7.60;;;;;;;16.42;100.00;150165.63;5073124;28;20311;-63
2022/12/07 11:28:51;;;;;;;9.03;8.17;;;;;;;16.18;100.00;150104.69;5073369;28;20228;-62
2022/12/07 11:31:30;;;;;;;8.50;7.53;;;;;;;15.80;100.00;150009.50;5072811;28;20189;-64
2022/12/07 11:34:07;;;;;;;7.27;6.87;;;;;;;15.78;100.00;150003.16;5072755;28;20184;-62
2022/12/07 11:36:39;;;;;;;7.63;6.83;;;;;;;15.80;100.00;150009.50;5072844;28;20196;-63
2022/12/07 11:39:18;;;;;;;10.23;7.60;;;;;;;15.77;100.00;150000.63;5073177;28;20341;-63